Terminal Aerodrome Forecast
Issued by NWS

Home | Current Version | Previous Version | Text Only | Print | Product List | Glossary On
Versions: 1 2 3 4 5 6 7 8 9 10 11 12 13
000
FTUS43 KDTX 200523
TAFYIP
TAF
KYIP 200523Z 2006/2106 VRB03KT P6SM SCT250
     FM201400 18008KT P6SM SKC
     FM210100 15005KT P6SM SCT250=

USA.gov is the U.S. government's official web portal to all federal, state and local government web resources and services.